createdAt,value
2019-02-02T00:01:20.602Z,32.53
2019-02-02T00:03:52.143Z,37.93
2019-02-02T00:06:24.018Z,37.73
2019-02-02T00:08:53.737Z,36.40
2019-02-02T00:11:24.707Z,38.17
2019-02-02T00:13:58.824Z,38.70
2019-02-02T00:16:30.969Z,40.47
2019-02-02T00:19:01.958Z,38.80
2019-02-02T00:21:33.006Z,36.97
2019-02-02T00:24:02.857Z,37.07
2019-02-02T00:26:33.048Z,34.47
2019-02-02T00:29:02.721Z,34.90
2019-02-02T00:31:36.983Z,40.97
2019-02-02T00:34:07.712Z,35.97
2019-02-02T00:36:37.376Z,39.10
2019-02-02T00:39:09.651Z,35.93
2019-02-02T00:41:39.380Z,32.93
2019-02-02T00:44:09.079Z,36.30
2019-02-02T00:46:41.876Z,38.47
2019-02-02T00:49:12.585Z,37.80
2019-02-02T00:51:42.233Z,34.03
2019-02-02T00:54:13.339Z,37.07
2019-02-02T00:56:45.478Z,31.97
2019-02-02T00:59:15.120Z,36.63
2019-02-02T01:01:44.853Z,35.63
2019-02-02T01:04:16.280Z,36.70
2019-02-02T01:06:45.901Z,40.27
2019-02-02T01:09:17.217Z,36.37
2019-02-02T01:11:46.887Z,37.67
2019-02-02T01:14:21.139Z,41.27
2019-02-02T01:16:48.060Z,35.87
2019-02-02T01:19:19.616Z,33.33
2019-02-02T01:21:49.322Z,37.50
2019-02-02T01:24:18.994Z,38.47
2019-02-02T01:26:48.673Z,33.73
2019-02-02T01:29:18.344Z,37.23
2019-02-02T01:31:48.017Z,37.07
2019-02-02T01:34:18.309Z,37.90
2019-02-02T01:36:52.163Z,37.90
2019-02-02T01:39:21.932Z,35.97
2019-02-02T01:41:53.134Z,38.27
2019-02-02T01:44:22.745Z,39.93
2019-02-02T01:46:52.369Z,32.93
2019-02-02T01:49:23.559Z,36.77
2019-02-02T01:51:54.563Z,38.37
2019-02-02T01:54:25.590Z,41.10
2019-02-02T01:56:55.301Z,37.30
2019-02-02T01:59:30.102Z,36.63
2019-02-02T02:02:00.762Z,34.00
2019-02-02T02:04:34.668Z,38.33
2019-02-02T02:07:04.364Z,36.10
2019-02-02T02:09:33.999Z,34.93
2019-02-02T02:12:03.693Z,34.90
2019-02-02T02:14:34.408Z,33.27
2019-02-02T02:17:05.013Z,33.73
2019-02-02T02:19:36.287Z,34.60
2019-02-02T02:22:06.328Z,37.03
2019-02-02T02:24:37.503Z,39.83
2019-02-02T02:27:07.157Z,34.90
2019-02-02T02:29:38.300Z,37.27
2019-02-02T02:32:09.059Z,32.47
2019-02-02T02:34:38.906Z,33.37
2019-02-02T02:37:09.870Z,35.13
2019-02-02T02:39:39.546Z,34.17
2019-02-02T02:42:10.589Z,40.40
2019-02-02T02:44:42.084Z,35.50
2019-02-02T02:47:13.117Z,35.20
2019-02-02T02:49:42.894Z,37.20
2019-02-02T02:52:14.124Z,34.97
2019-02-02T02:54:45.078Z,37.10
2019-02-02T02:57:14.706Z,33.03
2019-02-02T02:59:44.473Z,36.50
2019-02-02T03:02:15.676Z,37.20
2019-02-02T03:04:45.400Z,37.47
2019-02-02T03:07:19.303Z,38.97
2019-02-02T03:09:47.330Z,36.00
2019-02-02T03:12:17.110Z,37.03
2019-02-02T03:14:49.085Z,36.43
2019-02-02T03:17:20.357Z,32.60
2019-02-02T03:19:51.609Z,36.90
2019-02-02T03:22:24.438Z,40.63
2019-02-02T03:24:54.256Z,36.50
2019-02-02T03:27:25.323Z,37.80
2019-02-02T03:29:56.006Z,39.43
2019-02-02T03:32:26.933Z,32.93
2019-02-02T03:34:57.247Z,33.67
2019-02-02T03:37:26.924Z,43.60
2019-02-02T03:39:56.704Z,39.90
2019-02-02T03:42:26.447Z,37.90
2019-02-02T03:45:01.684Z,36.67
2019-02-02T03:47:32.243Z,36.63
2019-02-02T03:50:01.866Z,31.03
2019-02-02T03:52:35.236Z,34.83
2019-02-02T03:55:07.311Z,34.87
2019-02-02T03:57:36.940Z,35.23
2019-02-02T04:00:16.274Z,35.00
2019-02-02T04:02:46.378Z,32.17
2019-02-02T04:05:18.755Z,32.93
2019-02-02T04:07:48.505Z,36.83
2019-02-02T04:10:19.796Z,32.00
2019-02-02T04:12:49.602Z,33.30
2019-02-02T04:15:19.542Z,33.13
2019-02-02T04:17:49.264Z,35.53
2019-02-02T04:20:21.343Z,37.10
2019-02-02T04:22:51.732Z,37.10
2019-02-02T04:25:22.921Z,30.37
2019-02-02T04:27:52.678Z,33.83
2019-02-02T04:30:25.598Z,36.07
2019-02-02T04:32:57.696Z,32.43
2019-02-02T04:35:27.474Z,30.17
2019-02-02T04:37:57.537Z,29.10
2019-02-02T04:40:27.241Z,30.30
2019-02-02T04:42:57.074Z,30.97
2019-02-02T04:45:28.064Z,33.83
2019-02-02T04:48:00.103Z,31.23
2019-02-02T04:50:34.750Z,32.83
2019-02-02T04:53:05.969Z,34.73
2019-02-02T04:55:37.219Z,29.90
2019-02-02T04:58:06.975Z,39.30
2019-02-02T05:00:36.570Z,31.83
2019-02-02T05:03:06.177Z,28.37
2019-02-02T05:05:35.776Z,30.63
2019-02-02T05:08:05.369Z,28.07
2019-02-02T05:10:34.994Z,29.17
2019-02-02T05:13:04.684Z,28.30
2019-02-02T05:15:34.331Z,29.63
2019-02-02T05:18:03.959Z,29.87
2019-02-02T05:20:33.647Z,29.40
2019-02-02T05:23:03.307Z,30.50
2019-02-02T05:25:33.043Z,27.47
2019-02-02T05:28:02.674Z,28.10
2019-02-02T05:30:32.469Z,26.47
2019-02-02T05:33:02.192Z,26.80
2019-02-02T05:35:31.762Z,25.67
2019-02-02T05:38:01.371Z,26.53
2019-02-02T05:40:31.038Z,28.13
2019-02-02T05:43:00.644Z,27.37
2019-02-02T05:45:30.350Z,30.90
2019-02-02T05:47:59.835Z,26.03
2019-02-02T05:50:29.636Z,29.40
2019-02-02T05:53:00.505Z,29.63
2019-02-02T05:55:30.179Z,24.80
2019-02-02T05:57:59.903Z,26.87
2019-02-02T06:00:33.956Z,27.20
2019-02-02T06:03:03.688Z,26.17
2019-02-02T06:05:33.314Z,28.70
2019-02-02T06:08:02.945Z,25.97
2019-02-02T06:10:32.711Z,25.43
2019-02-02T06:13:02.331Z,27.93
2019-02-02T06:15:31.989Z,25.47
2019-02-02T06:18:01.747Z,24.83
2019-02-02T06:20:31.440Z,26.03
2019-02-02T06:23:01.089Z,26.27
2019-02-02T06:25:30.839Z,28.97
2019-02-02T06:28:00.440Z,22.90
2019-02-02T06:30:30.016Z,26.93
2019-02-02T06:32:59.680Z,25.77
2019-02-02T06:35:29.485Z,23.50
2019-02-02T06:37:59.137Z,24.23
2019-02-02T06:40:28.909Z,28.00
2019-02-02T06:42:58.546Z,23.27
2019-02-02T06:45:30.472Z,22.97
2019-02-02T06:48:00.441Z,24.43
2019-02-02T06:50:30.117Z,24.93
2019-02-02T06:53:00.499Z,28.40
2019-02-02T06:55:31.755Z,23.70
2019-02-02T06:58:13.892Z,23.43
2019-02-02T07:00:43.504Z,23.87
2019-02-02T07:03:13.563Z,23.20
2019-02-02T07:05:43.171Z,22.70
2019-02-02T07:08:12.890Z,25.07
2019-02-02T07:10:42.503Z,26.73
2019-02-02T07:13:12.112Z,23.20
2019-02-02T07:15:41.857Z,21.37
2019-02-02T07:18:11.523Z,23.00
2019-02-02T07:20:41.265Z,22.87
2019-02-02T07:23:12.841Z,22.07
2019-02-02T07:25:42.556Z,18.73
2019-02-02T07:28:12.285Z,22.07
2019-02-02T07:30:41.996Z,20.53
2019-02-02T07:33:11.644Z,20.60
2019-02-02T07:35:41.270Z,21.60
2019-02-02T07:38:10.899Z,19.93
2019-02-02T07:40:40.632Z,20.97
2019-02-02T07:43:10.233Z,19.67
2019-02-02T07:45:39.847Z,18.13
2019-02-02T07:48:09.527Z,19.00
2019-02-02T07:50:39.170Z,19.07
2019-02-02T07:53:08.874Z,19.77
2019-02-02T07:55:38.503Z,20.00
2019-02-02T07:58:08.197Z,18.53
2019-02-02T08:00:41.175Z,19.67
2019-02-02T08:03:09.386Z,15.97
2019-02-02T08:05:40.190Z,20.60
2019-02-02T08:08:09.764Z,19.77
2019-02-02T08:10:39.376Z,14.83
2019-02-02T08:13:09.102Z,19.23
2019-02-02T08:15:38.753Z,19.40
2019-02-02T08:18:08.397Z,20.37
2019-02-02T08:20:37.993Z,18.60
2019-02-02T08:23:07.706Z,16.87
2019-02-02T08:25:37.388Z,16.73
2019-02-02T08:28:06.989Z,18.07
2019-02-02T08:30:37.031Z,17.37
2019-02-02T08:33:07.211Z,16.57
2019-02-02T08:35:36.818Z,15.93
2019-02-02T08:38:06.541Z,16.33
2019-02-02T08:40:36.205Z,15.97
2019-02-02T08:43:06.051Z,19.10
2019-02-02T08:45:35.742Z,16.77
2019-02-02T08:48:05.326Z,19.93
2019-02-02T08:50:36.509Z,20.17
2019-02-02T08:53:06.303Z,19.53
2019-02-02T08:55:36.045Z,22.37
2019-02-02T08:58:05.679Z,20.73
2019-02-02T09:00:35.639Z,22.50
2019-02-02T09:03:05.574Z,17.90
2019-02-02T09:05:35.252Z,18.63
2019-02-02T09:08:05.228Z,22.43
2019-02-02T09:10:34.903Z,23.80
2019-02-02T09:13:05.025Z,23.00
2019-02-02T09:15:34.684Z,18.93
2019-02-02T09:18:04.680Z,20.67
2019-02-02T09:20:34.327Z,21.03
2019-02-02T09:23:06.594Z,20.30
2019-02-02T09:25:35.144Z,22.07
2019-02-02T09:28:16.997Z,21.43
2019-02-02T09:30:46.672Z,20.30
2019-02-02T09:33:16.705Z,25.73
2019-02-02T09:35:46.470Z,22.43
2019-02-02T09:38:16.059Z,22.30
2019-02-02T09:40:45.755Z,21.83
2019-02-02T09:43:15.435Z,24.00
2019-02-02T09:45:45.138Z,21.93
2019-02-02T09:48:14.860Z,22.23
2019-02-02T09:50:44.447Z,22.80
2019-02-02T09:53:14.185Z,20.73
2019-02-02T09:55:43.849Z,21.73
2019-02-02T09:58:13.515Z,22.80
2019-02-02T10:00:43.138Z,23.50
2019-02-02T10:03:12.803Z,23.10
2019-02-02T10:05:42.473Z,22.93
2019-02-02T10:08:12.093Z,24.47
2019-02-02T10:10:41.692Z,21.50
2019-02-02T10:13:11.430Z,22.80
2019-02-02T10:15:41.097Z,25.13
2019-02-02T10:18:10.681Z,23.73
2019-02-02T10:20:40.292Z,23.40
2019-02-02T10:23:09.883Z,26.57
2019-02-02T10:25:39.512Z,27.07
2019-02-02T10:28:09.193Z,22.57
2019-02-02T10:30:41.036Z,23.70
2019-02-02T10:33:11.165Z,21.67
2019-02-02T10:35:40.747Z,21.97
2019-02-02T10:38:10.642Z,24.13
2019-02-02T10:40:40.240Z,26.40
2019-02-02T10:43:10.205Z,24.17
2019-02-02T10:45:40.097Z,22.20
2019-02-02T10:48:09.706Z,24.83
2019-02-02T10:50:39.322Z,25.03
2019-02-02T10:53:08.912Z,23.83
2019-02-02T10:55:38.490Z,23.13
2019-02-02T10:58:08.182Z,22.47
2019-02-02T11:00:41.140Z,25.17
2019-02-02T11:03:10.878Z,23.83
2019-02-02T11:05:40.537Z,26.53
2019-02-02T11:08:10.156Z,23.10
2019-02-02T11:10:39.813Z,27.20
2019-02-02T11:13:09.482Z,23.57
2019-02-02T11:15:39.152Z,26.37
2019-02-02T11:18:08.872Z,22.53
2019-02-02T11:20:39.413Z,24.23
2019-02-02T11:23:09.052Z,22.43
2019-02-02T11:25:38.824Z,25.60
2019-02-02T11:28:08.543Z,26.13
2019-02-02T11:30:38.369Z,24.03
2019-02-02T11:33:08.102Z,26.80
2019-02-02T11:35:37.769Z,23.97
2019-02-02T11:38:07.478Z,29.43
2019-02-02T11:40:37.201Z,27.70
2019-02-02T11:43:08.550Z,27.70
2019-02-02T11:45:38.407Z,24.93
2019-02-02T11:48:08.146Z,51.30
2019-02-02T11:50:37.757Z,35.37
2019-02-02T11:53:07.424Z,28.97
2019-02-02T11:55:37.163Z,22.50
2019-02-02T11:58:06.755Z,29.97
2019-02-02T12:00:42.801Z,27.83
2019-02-02T12:03:12.537Z,21.83
2019-02-02T12:05:42.131Z,27.50
2019-02-02T12:08:11.844Z,25.70
2019-02-02T12:10:41.587Z,24.73
2019-02-02T12:13:11.369Z,24.20
2019-02-02T12:15:40.979Z,29.57
2019-02-02T12:18:11.876Z,22.63
2019-02-02T12:20:41.788Z,24.70
2019-02-02T12:23:11.461Z,23.63
2019-02-02T12:25:41.147Z,21.73
2019-02-02T12:28:10.813Z,24.17
2019-02-02T12:30:40.413Z,25.30
2019-02-02T12:33:10.111Z,22.57
2019-02-02T12:35:39.755Z,23.57
2019-02-02T12:38:09.367Z,20.93
2019-02-02T12:40:39.106Z,26.07
2019-02-02T12:43:11.524Z,23.87
2019-02-02T12:45:42.938Z,24.97
2019-02-02T12:48:24.836Z,24.13
2019-02-02T12:50:54.525Z,24.77
2019-02-02T12:53:24.107Z,23.80
2019-02-02T12:55:53.709Z,23.03
2019-02-02T12:58:23.501Z,23.93
2019-02-02T13:00:53.151Z,24.37
2019-02-02T13:03:23.026Z,23.13
2019-02-02T13:05:52.618Z,24.33
2019-02-02T13:08:22.227Z,32.07
2019-02-02T13:10:52.919Z,24.33
2019-02-02T13:13:22.503Z,26.40
2019-02-02T13:15:53.283Z,24.83
2019-02-02T13:18:22.874Z,26.77
2019-02-02T13:20:52.465Z,23.63
2019-02-02T13:23:22.325Z,25.50
2019-02-02T13:26:04.683Z,24.43
2019-02-02T13:28:25.262Z,26.37
2019-02-02T13:30:56.769Z,24.67
2019-02-02T13:33:26.440Z,25.40
2019-02-02T13:35:56.060Z,26.87
2019-02-02T13:38:25.799Z,26.13
2019-02-02T13:40:55.395Z,31.10
2019-02-02T13:43:25.015Z,30.17
2019-02-02T13:45:54.588Z,23.23
2019-02-02T13:48:24.273Z,25.60
2019-02-02T13:50:55.308Z,26.07
2019-02-02T13:53:24.956Z,31.37
2019-02-02T13:55:54.586Z,28.00
2019-02-02T13:58:24.180Z,29.83
2019-02-02T14:00:53.820Z,31.57
2019-02-02T14:03:23.482Z,24.43
2019-02-02T14:05:53.163Z,26.43
2019-02-02T14:08:22.797Z,27.53
2019-02-02T14:10:52.406Z,24.47
2019-02-02T14:13:22.103Z,28.57
2019-02-02T14:15:51.680Z,30.10
2019-02-02T14:18:21.305Z,32.40
2019-02-02T14:20:50.905Z,27.47
2019-02-02T14:23:20.569Z,30.37
2019-02-02T14:25:50.259Z,26.00
2019-02-02T14:28:27.894Z,25.33
2019-02-02T14:30:53.607Z,25.33
2019-02-02T14:33:22.455Z,25.20
2019-02-02T14:35:52.127Z,26.37
2019-02-02T14:38:21.825Z,29.83
2019-02-02T14:40:51.496Z,27.20
2019-02-02T14:43:21.191Z,26.87
2019-02-02T14:45:51.443Z,28.13
2019-02-02T14:48:21.115Z,26.83
2019-02-02T14:50:50.826Z,27.97
2019-02-02T14:53:20.440Z,30.10
2019-02-02T14:55:50.053Z,29.03
2019-02-02T14:58:19.699Z,27.23
2019-02-02T15:00:49.310Z,21.77
2019-02-02T15:03:25.733Z,27.00
2019-02-02T15:05:50.215Z,27.90
2019-02-02T15:08:19.990Z,28.40
2019-02-02T15:10:49.730Z,24.07
2019-02-02T15:13:19.352Z,25.37
2019-02-02T15:16:08.350Z,29.40
2019-02-02T15:18:38.435Z,24.57
2019-02-02T15:21:08.311Z,25.23
2019-02-02T15:23:38.014Z,23.73
2019-02-02T15:26:09.718Z,24.80
2019-02-02T15:28:39.051Z,21.80
2019-02-02T15:31:08.715Z,21.80
2019-02-02T15:33:38.319Z,26.77
2019-02-02T15:36:08.185Z,25.37
2019-02-02T15:38:37.873Z,19.90
2019-02-02T15:41:07.476Z,23.73
2019-02-02T15:43:37.164Z,24.93
2019-02-02T15:46:06.745Z,22.13
2019-02-02T15:48:36.429Z,21.87
2019-02-02T15:51:06.043Z,20.67
2019-02-02T15:53:35.663Z,22.77
2019-02-02T15:56:05.503Z,21.57
2019-02-02T15:58:36.597Z,21.43
2019-02-02T16:01:06.508Z,20.33
2019-02-02T16:03:36.256Z,18.10
2019-02-02T16:06:05.958Z,21.33
2019-02-02T16:08:35.542Z,18.97
2019-02-02T16:11:05.246Z,28.43
2019-02-02T16:13:34.956Z,21.07
2019-02-02T16:16:04.578Z,20.60
2019-02-02T16:18:34.226Z,22.33
2019-02-02T16:21:05.577Z,21.43
2019-02-02T16:23:35.277Z,24.07
2019-02-02T16:26:05.429Z,19.00
2019-02-02T16:28:35.035Z,22.90
2019-02-02T16:31:04.721Z,19.63
2019-02-02T16:33:34.355Z,16.63
2019-02-02T16:36:04.300Z,15.07
2019-02-02T16:38:34.076Z,18.07
2019-02-02T16:41:03.819Z,17.77
2019-02-02T16:43:33.415Z,18.27
2019-02-02T16:46:03.040Z,16.90
2019-02-02T16:48:32.704Z,13.20
2019-02-02T16:51:02.387Z,19.27
2019-02-02T16:53:32.035Z,16.13
2019-02-02T16:56:01.627Z,15.20
2019-02-02T16:58:31.327Z,15.53
2019-02-02T17:01:01.063Z,15.40
2019-02-02T17:03:30.818Z,14.30
2019-02-02T17:06:00.433Z,14.77
2019-02-02T17:08:30.204Z,14.30
2019-02-02T17:10:59.833Z,17.07
2019-02-02T17:13:29.572Z,12.63
2019-02-02T17:15:59.318Z,12.27
2019-02-02T17:18:28.926Z,11.03
2019-02-02T17:20:58.594Z,11.13
2019-02-02T17:23:28.345Z,10.87
2019-02-02T17:25:58.016Z,9.80
2019-02-02T17:28:27.618Z,9.50
2019-02-02T17:30:57.373Z,10.17
2019-02-02T17:33:27.105Z,9.87
2019-02-02T17:35:56.757Z,10.57
2019-02-02T17:38:26.440Z,7.33
2019-02-02T17:40:56.021Z,8.43
2019-02-02T17:43:25.616Z,7.83
2019-02-02T17:45:55.222Z,7.80
2019-02-02T17:48:24.886Z,7.73
2019-02-02T17:50:54.503Z,12.57
2019-02-02T17:53:24.261Z,15.57
2019-02-02T17:55:54.007Z,15.80
2019-02-02T17:58:23.617Z,28.97
2019-02-02T18:00:58.168Z,11.50
2019-02-02T18:03:27.896Z,20.17
2019-02-02T18:05:57.610Z,12.90
2019-02-02T18:08:27.195Z,9.97
2019-02-02T18:10:56.910Z,7.37
2019-02-02T18:13:27.596Z,10.13
2019-02-02T18:15:57.368Z,11.17
2019-02-02T18:18:27.047Z,10.37
2019-02-02T18:20:56.715Z,8.40
2019-02-02T18:23:26.375Z,10.37
2019-02-02T18:25:56.071Z,9.07
2019-02-02T18:28:25.701Z,10.67
2019-02-02T18:30:55.301Z,10.47
2019-02-02T18:33:24.977Z,9.47
2019-02-02T18:35:54.649Z,8.07
2019-02-02T18:38:24.298Z,7.63
2019-02-02T18:40:53.895Z,8.03
2019-02-02T18:43:23.483Z,7.37
2019-02-02T18:45:53.198Z,8.93
2019-02-02T18:48:22.985Z,10.20
2019-02-02T18:50:53.717Z,8.63
2019-02-02T18:53:23.370Z,8.43
2019-02-02T18:55:55.933Z,7.90
2019-02-02T18:58:25.631Z,7.93
2019-02-02T19:00:55.375Z,7.20
2019-02-02T19:03:25.098Z,6.40
2019-02-02T19:05:54.818Z,9.37
2019-02-02T19:08:24.575Z,8.40
2019-02-02T19:10:54.235Z,6.90
2019-02-02T19:13:23.834Z,7.47
2019-02-02T19:15:53.521Z,6.67
2019-02-02T19:18:23.233Z,7.90
2019-02-02T19:20:52.842Z,6.63
2019-02-02T19:23:25.219Z,6.23
2019-02-02T19:25:53.739Z,6.50
2019-02-02T19:28:26.436Z,5.90
2019-02-02T19:30:54.725Z,5.97
2019-02-02T19:33:24.419Z,7.27
2019-02-02T19:35:54.027Z,6.20
2019-02-02T19:38:25.143Z,5.57
2019-02-02T19:40:54.823Z,6.20
2019-02-02T19:43:24.501Z,6.17
2019-02-02T19:45:54.594Z,5.93
2019-02-02T19:48:24.332Z,8.87
2019-02-02T19:50:53.919Z,10.37
2019-02-02T19:53:23.646Z,40.57
2019-02-02T19:55:53.294Z,16.83
2019-02-02T19:58:23.019Z,24.90
2019-02-02T20:00:52.635Z,18.23
2019-02-02T20:03:22.626Z,10.97
2019-02-02T20:05:52.377Z,13.53
2019-02-02T20:08:22.043Z,9.13
2019-02-02T20:10:51.729Z,6.60
2019-02-02T20:13:21.400Z,7.53
2019-02-02T20:15:50.984Z,6.47
2019-02-02T20:18:20.779Z,6.80
2019-02-02T20:20:50.432Z,5.70
2019-02-02T20:23:20.029Z,6.03
2019-02-02T20:25:49.757Z,5.47
2019-02-02T20:28:19.437Z,4.77
2019-02-02T20:30:49.051Z,5.47
2019-02-02T20:33:20.112Z,5.07
2019-02-02T20:35:49.944Z,7.03
2019-02-02T20:38:19.617Z,5.07
2019-02-02T20:40:49.247Z,4.83
2019-02-02T20:43:18.857Z,5.20
2019-02-02T20:45:48.444Z,4.50
2019-02-02T20:48:18.128Z,5.10
2019-02-02T20:50:47.808Z,3.53
2019-02-02T20:53:18.125Z,49.53
2019-02-02T20:55:47.863Z,19.77
2019-02-02T20:58:17.509Z,4.57
2019-02-02T21:00:47.267Z,5.27
2019-02-02T21:03:16.922Z,4.43
2019-02-02T21:05:52.567Z,4.80
2019-02-02T21:08:18.402Z,4.00
2019-02-02T21:10:48.093Z,4.80
2019-02-02T21:13:17.841Z,4.93
2019-02-02T21:15:47.502Z,4.70
2019-02-02T21:18:17.572Z,6.20
2019-02-02T21:20:47.237Z,5.83
2019-02-02T21:23:16.946Z,13.63
2019-02-02T21:25:47.594Z,5.37
2019-02-02T21:28:17.167Z,5.20
2019-02-02T21:30:46.872Z,3.53
2019-02-02T21:33:16.575Z,5.57
2019-02-02T21:35:48.865Z,6.47
2019-02-02T21:38:18.742Z,5.90
2019-02-02T21:40:48.361Z,9.63
2019-02-02T21:43:18.438Z,6.43
2019-02-02T21:45:48.051Z,5.63
2019-02-02T21:48:17.642Z,4.03
2019-02-02T21:50:47.430Z,5.23
2019-02-02T21:53:17.124Z,3.37
2019-02-02T21:55:46.730Z,3.67
2019-02-02T21:58:16.317Z,4.20
2019-02-02T22:00:45.937Z,4.10
2019-02-02T22:03:15.576Z,3.60
2019-02-02T22:05:45.278Z,3.30
2019-02-02T22:08:14.940Z,3.20
2019-02-02T22:10:44.620Z,3.47
2019-02-02T22:13:14.612Z,2.93
2019-02-02T22:15:44.281Z,4.00
2019-02-02T22:18:13.974Z,3.60
2019-02-02T22:20:43.668Z,2.10
2019-02-02T22:23:13.733Z,3.40
2019-02-02T22:25:43.371Z,4.80
2019-02-02T22:28:13.051Z,2.47
2019-02-02T22:30:42.650Z,2.83
2019-02-02T22:33:12.269Z,3.27
2019-02-02T22:35:42.128Z,2.30
2019-02-02T22:38:11.719Z,2.60
2019-02-02T22:40:41.407Z,2.83
2019-02-02T22:43:11.113Z,2.60
2019-02-02T22:45:40.845Z,2.20
2019-02-02T22:48:10.509Z,2.20
2019-02-02T22:50:40.207Z,2.50
2019-02-02T22:53:09.883Z,2.87
2019-02-02T22:55:40.491Z,2.60
2019-02-02T22:58:10.080Z,2.30
2019-02-02T23:00:49.924Z,2.80
2019-02-02T23:03:28.636Z,2.70
2019-02-02T23:06:24.947Z,2.63
2019-02-02T23:09:30.872Z,2.23
2019-02-02T23:12:09.571Z,3.00
2019-02-02T23:14:54.260Z,2.33
2019-02-02T23:17:23.871Z,2.10
2019-02-02T23:19:53.479Z,2.17
2019-02-02T23:22:23.151Z,1.93
2019-02-02T23:24:52.801Z,2.10
2019-02-02T23:27:22.488Z,2.00
2019-02-02T23:29:52.158Z,2.17
2019-02-02T23:32:21.858Z,1.80
2019-02-02T23:34:51.679Z,1.83
2019-02-02T23:37:22.075Z,1.83
2019-02-02T23:39:51.699Z,2.10
2019-02-02T23:42:21.360Z,2.13
2019-02-02T23:44:52.125Z,2.00
2019-02-02T23:47:22.200Z,2.60
2019-02-02T23:49:51.930Z,2.00
2019-02-02T23:52:21.646Z,1.80
2019-02-02T23:54:51.319Z,1.83
2019-02-02T23:57:20.997Z,1.57
2019-02-02T23:59:51.137Z,2.00
